createdAt,value
2018-04-17T00:00:30.104Z,72.47
2018-04-17T00:02:58.525Z,71.09
2018-04-17T00:05:29.052Z,71.45
2018-04-17T00:07:59.436Z,71.86
2018-04-17T00:10:27.872Z,72.29
2018-04-17T00:12:56.340Z,72.03
2018-04-17T00:15:28.960Z,70.94
2018-04-17T00:17:57.379Z,71.40
2018-04-17T00:20:29.820Z,71.92
2018-04-17T00:23:00.005Z,72.36
2018-04-17T00:25:28.482Z,72.36
2018-04-17T00:27:56.909Z,72.73
2018-04-17T00:30:25.383Z,73.07
2018-04-17T00:32:53.805Z,72.94
2018-04-17T00:35:22.216Z,73.58
2018-04-17T00:37:50.715Z,73.71
2018-04-17T00:40:19.120Z,73.61
2018-04-17T00:42:49.638Z,74.05
2018-04-17T00:45:20.206Z,74.34
2018-04-17T00:47:50.750Z,72.91
2018-04-17T00:50:19.311Z,73.16
2018-04-17T00:52:47.750Z,73.62
2018-04-17T00:55:16.156Z,73.54
2018-04-17T00:57:46.840Z,73.45
2018-04-17T01:00:15.287Z,73.03
2018-04-17T01:02:43.720Z,72.25
2018-04-17T01:05:12.276Z,71.97
2018-04-17T01:07:40.667Z,71.93
2018-04-17T01:10:09.187Z,72.59
2018-04-17T01:12:37.704Z,73.15
2018-04-17T01:15:06.177Z,72.76
2018-04-17T01:17:34.594Z,72.01
2018-04-17T01:20:03.087Z,73.31
2018-04-17T01:22:31.503Z,72.56
2018-04-17T01:25:02.061Z,72.62
2018-04-17T01:27:30.510Z,73.08
2018-04-17T01:29:58.920Z,73.55
2018-04-17T01:32:29.452Z,73.58
2018-04-17T01:34:59.979Z,73.99
2018-04-17T01:37:28.374Z,74.92
2018-04-17T01:39:56.835Z,75.10
2018-04-17T01:42:27.307Z,74.48
2018-04-17T01:44:57.718Z,74.80
2018-04-17T01:47:26.180Z,75.34
2018-04-17T01:49:56.800Z,75.59
2018-04-17T01:52:25.327Z,76.28
2018-04-17T01:54:53.795Z,76.77
2018-04-17T01:57:22.308Z,77.32
2018-04-17T01:59:50.722Z,77.96
2018-04-17T02:02:19.136Z,78.21
2018-04-17T02:04:47.561Z,78.25
2018-04-17T02:07:15.963Z,78.18
2018-04-17T02:09:44.419Z,78.19
2018-04-17T02:12:14.919Z,77.55
2018-04-17T02:14:43.353Z,77.15
2018-04-17T02:17:13.831Z,76.90
2018-04-17T02:19:42.228Z,77.08
2018-04-17T02:22:10.663Z,77.21
2018-04-17T02:24:41.190Z,77.05
2018-04-17T02:27:09.618Z,76.99
2018-04-17T02:29:40.118Z,76.68
2018-04-17T02:32:10.591Z,76.64
2018-04-17T02:34:41.164Z,76.72
2018-04-17T02:37:09.619Z,76.79
2018-04-17T02:39:38.082Z,76.55
2018-04-17T02:42:08.750Z,77.75
2018-04-17T02:44:37.167Z,77.76
2018-04-17T02:47:05.571Z,77.52
2018-04-17T02:49:34.015Z,77.70
2018-04-17T02:52:02.419Z,77.79
2018-04-17T02:54:30.854Z,78.08
2018-04-17T02:56:59.236Z,77.85
2018-04-17T02:59:27.795Z,77.72
2018-04-17T03:01:56.270Z,78.25
2018-04-17T03:04:24.687Z,78.27
2018-04-17T03:06:55.247Z,78.19
2018-04-17T03:09:23.650Z,77.85
2018-04-17T03:11:54.151Z,78.09
2018-04-17T03:14:22.596Z,78.19
2018-04-17T03:16:53.196Z,77.86
2018-04-17T03:19:21.648Z,77.73
2018-04-17T03:21:50.138Z,77.38
2018-04-17T03:24:18.695Z,77.36
2018-04-17T03:26:47.108Z,77.30
2018-04-17T03:29:15.551Z,76.52
2018-04-17T03:31:43.983Z,76.01
2018-04-17T03:34:12.429Z,76.24
2018-04-17T03:36:40.919Z,76.30
2018-04-17T03:39:09.329Z,76.95
2018-04-17T03:41:37.699Z,76.94
2018-04-17T03:44:06.116Z,76.75
2018-04-17T03:46:34.515Z,76.42
2018-04-17T03:49:05.112Z,76.12
2018-04-17T03:51:33.535Z,75.89
2018-04-17T03:54:01.956Z,76.07
2018-04-17T03:56:32.463Z,76.27
2018-04-17T03:59:00.919Z,76.93
2018-04-17T04:01:29.359Z,77.82
2018-04-17T04:03:57.788Z,78.17
2018-04-17T04:06:28.226Z,78.33
2018-04-17T04:08:58.827Z,78.52
2018-04-17T04:11:27.270Z,78.84
2018-04-17T04:13:55.679Z,78.89
2018-04-17T04:16:32.374Z,78.63
2018-04-17T04:19:06.956Z,78.34
2018-04-17T04:21:41.467Z,77.83
2018-04-17T04:37:35.684Z,76.30
2018-04-17T04:40:04.140Z,76.74
2018-04-17T04:42:32.582Z,76.94
2018-04-17T04:45:01.003Z,77.16
2018-04-17T04:47:31.582Z,77.30
2018-04-17T04:50:00.016Z,77.17
2018-04-17T04:52:28.483Z,76.90
2018-04-17T04:54:56.907Z,76.70
2018-04-17T04:57:25.477Z,76.50
2018-04-17T04:59:53.898Z,76.29
2018-04-17T05:02:22.451Z,75.98
2018-04-17T05:04:50.942Z,75.57
2018-04-17T05:07:19.364Z,75.28
2018-04-17T05:09:47.775Z,74.29
2018-04-17T05:12:18.318Z,74.15
2018-04-17T05:14:46.762Z,73.83
2018-04-17T05:17:15.178Z,73.56
2018-04-17T05:19:45.672Z,72.87
2018-04-17T05:22:14.128Z,72.15
2018-04-17T05:24:42.558Z,72.39
2018-04-17T05:27:11.199Z,71.92
2018-04-17T05:29:39.639Z,71.22
2018-04-17T05:32:09.999Z,70.90
2018-04-17T05:34:38.450Z,70.68
2018-04-17T05:37:06.875Z,70.20
2018-04-17T05:39:36.992Z,69.48
2018-04-17T05:42:05.436Z,69.29
2018-04-17T05:44:35.955Z,69.44
2018-04-17T05:47:04.406Z,69.08
2018-04-17T05:49:36.507Z,68.55
2018-04-17T05:52:04.896Z,67.85
2018-04-17T05:54:33.318Z,67.77
2018-04-17T05:57:03.786Z,66.65
2018-04-17T05:59:32.229Z,66.36
2018-04-17T06:02:00.680Z,65.23
2018-04-17T06:04:30.364Z,64.39
2018-04-17T06:06:58.756Z,63.97
2018-04-17T06:09:28.286Z,63.23
2018-04-17T06:11:56.735Z,62.99
2018-04-17T06:14:25.159Z,63.26
2018-04-17T06:16:53.603Z,63.22
2018-04-17T06:19:23.079Z,63.62
2018-04-17T06:21:51.482Z,62.54
2018-04-17T06:24:21.400Z,62.81
2018-04-17T06:26:49.844Z,61.93
2018-04-17T06:29:18.264Z,61.37
2018-04-17T06:31:46.737Z,60.44
2018-04-17T06:34:16.379Z,60.45
2018-04-17T06:36:44.800Z,59.71
2018-04-17T06:39:16.676Z,58.29
2018-04-17T06:41:45.538Z,57.95
2018-04-17T06:44:13.896Z,57.36
2018-04-17T06:46:42.312Z,56.86
2018-04-17T06:49:10.763Z,57.78
2018-04-17T06:51:39.180Z,55.48
2018-04-17T06:54:07.866Z,53.75
2018-04-17T06:56:36.302Z,52.18
2018-04-17T06:59:04.687Z,51.95
2018-04-17T07:01:33.104Z,50.67
2018-04-17T07:04:02.624Z,50.25
2018-04-17T07:06:31.296Z,48.17
2018-04-17T07:08:59.723Z,46.79
2018-04-17T07:11:28.092Z,44.63
2018-04-17T07:13:56.528Z,44.44
2018-04-17T07:16:26.157Z,41.76
2018-04-17T07:18:56.217Z,40.81
2018-04-17T07:21:24.838Z,40.82
2018-04-17T07:23:53.236Z,39.66
2018-04-17T07:26:21.595Z,39.12
2018-04-17T07:28:52.031Z,37.70
2018-04-17T07:31:20.511Z,36.24
2018-04-17T07:33:48.971Z,34.62
2018-04-17T07:36:18.695Z,33.29
2018-04-17T07:38:47.139Z,32.98
2018-04-17T07:41:16.692Z,35.06
2018-04-17T07:43:47.726Z,33.85
2018-04-17T07:46:16.139Z,33.95
2018-04-17T07:48:48.761Z,33.15
2018-04-17T07:51:17.245Z,33.02
2018-04-17T07:53:46.223Z,32.40
2018-04-17T07:56:14.650Z,31.44
2018-04-17T07:58:44.539Z,29.85
2018-04-17T08:01:13.008Z,29.74
2018-04-17T08:03:41.423Z,29.96
2018-04-17T08:06:09.780Z,29.59
2018-04-17T08:08:38.224Z,28.42
2018-04-17T08:11:07.791Z,27.99
2018-04-17T08:13:37.644Z,26.51
2018-04-17T08:16:07.521Z,26.66
2018-04-17T08:18:37.086Z,27.16
2018-04-17T08:21:07.627Z,26.72
2018-04-17T08:23:36.059Z,27.06
2018-04-17T08:26:04.499Z,25.79
2018-04-17T08:28:33.883Z,25.76
2018-04-17T08:31:02.298Z,26.24
2018-04-17T08:33:30.801Z,26.62
2018-04-17T08:36:00.716Z,26.62
2018-04-17T08:38:29.155Z,25.59
2018-04-17T08:40:57.672Z,25.38
2018-04-17T08:43:26.073Z,25.45
2018-04-17T08:45:54.535Z,25.88
2018-04-17T08:48:22.925Z,25.95
2018-04-17T08:50:51.392Z,25.75
2018-04-17T08:53:19.911Z,25.60
2018-04-17T08:55:48.315Z,25.63
2018-04-17T08:58:16.723Z,24.07
2018-04-17T09:00:45.468Z,22.44
2018-04-17T09:03:13.852Z,23.28
2018-04-17T09:05:42.251Z,22.92
2018-04-17T09:08:10.818Z,22.82
2018-04-17T09:10:39.233Z,23.13
2018-04-17T09:13:07.651Z,22.56
2018-04-17T09:15:38.390Z,22.58
2018-04-17T09:18:08.322Z,22.77
2018-04-17T09:20:37.976Z,23.32
2018-04-17T09:23:07.817Z,23.04
2018-04-17T09:25:36.285Z,23.49
2018-04-17T09:28:04.664Z,24.09
2018-04-17T09:30:33.187Z,23.10
2018-04-17T09:33:03.130Z,23.22
2018-04-17T09:35:31.507Z,23.87
2018-04-17T09:37:59.966Z,22.74
2018-04-17T09:40:28.378Z,23.32
2018-04-17T09:42:59.139Z,22.21
2018-04-17T09:45:27.596Z,21.90
2018-04-17T09:47:57.088Z,22.47
2018-04-17T09:50:26.500Z,22.87
2018-04-17T09:52:54.943Z,22.61
2018-04-17T09:55:23.314Z,21.20
2018-04-17T09:57:51.743Z,21.91
2018-04-17T10:00:20.128Z,21.74
2018-04-17T10:02:48.557Z,22.33
2018-04-17T10:05:18.356Z,21.50
2018-04-17T10:07:46.815Z,21.02
2018-04-17T10:10:15.284Z,21.36
2018-04-17T10:12:45.312Z,20.30
2018-04-17T10:15:13.735Z,21.34
2018-04-17T10:17:42.207Z,20.70
2018-04-17T10:20:10.701Z,21.13
2018-04-17T10:22:39.164Z,19.38
2018-04-17T10:25:08.617Z,19.96
2018-04-17T10:27:37.062Z,20.41
2018-04-17T10:30:05.428Z,21.11
2018-04-17T10:32:33.891Z,20.39
2018-04-17T10:35:02.267Z,20.62
2018-04-17T10:37:30.692Z,20.83
2018-04-17T10:39:59.129Z,20.69
2018-04-17T10:42:27.540Z,21.44
2018-04-17T10:44:56.002Z,20.43
2018-04-17T10:47:24.398Z,20.97
2018-04-17T10:49:52.792Z,21.53
2018-04-17T10:52:22.435Z,21.81
2018-04-17T10:54:50.916Z,22.36
2018-04-17T10:57:19.327Z,23.94
2018-04-17T10:59:47.776Z,24.38
2018-04-17T11:02:16.219Z,24.02
2018-04-17T11:04:44.657Z,23.90
2018-04-17T11:07:13.023Z,26.27
2018-04-17T11:09:41.456Z,26.50
2018-04-17T11:12:09.923Z,26.54
2018-04-17T11:14:38.340Z,27.00
2018-04-17T11:17:06.819Z,26.89
2018-04-17T11:19:36.391Z,27.54
2018-04-17T11:22:04.780Z,25.90
2018-04-17T11:24:33.221Z,26.46
2018-04-17T11:27:01.887Z,26.17
2018-04-17T11:29:30.315Z,25.72
2018-04-17T11:31:58.733Z,25.78
2018-04-17T11:34:27.481Z,27.16
2018-04-17T11:36:55.887Z,25.66
2018-04-17T11:39:25.727Z,27.73
2018-04-17T11:41:54.202Z,28.59
2018-04-17T11:44:22.683Z,27.32
2018-04-17T11:46:51.120Z,27.49
2018-04-17T11:49:19.555Z,27.81
2018-04-17T11:51:48.248Z,27.71
2018-04-17T11:54:16.712Z,28.07
2018-04-17T11:56:45.123Z,27.73
2018-04-17T11:59:13.592Z,28.43
2018-04-17T12:01:42.168Z,27.96
2018-04-17T12:04:10.611Z,28.89
2018-04-17T12:06:40.351Z,29.30
2018-04-17T12:09:08.795Z,29.55
2018-04-17T12:11:37.251Z,28.37
2018-04-17T12:14:05.735Z,29.43
2018-04-17T12:16:34.144Z,28.66
2018-04-17T12:19:02.624Z,30.06
2018-04-17T12:21:31.052Z,29.25
2018-04-17T12:23:59.462Z,28.02
2018-04-17T12:26:28.948Z,28.76
2018-04-17T12:28:58.646Z,29.30
2018-04-17T12:31:27.079Z,28.39
2018-04-17T12:33:55.495Z,29.33
2018-04-17T12:36:25.043Z,28.79
2018-04-17T12:38:53.458Z,28.02
2018-04-17T12:41:21.907Z,29.50
2018-04-17T12:43:50.376Z,30.19
2018-04-17T12:46:18.739Z,30.94
2018-04-17T12:48:47.094Z,31.13
2018-04-17T12:51:15.556Z,29.80
2018-04-17T12:53:43.919Z,29.69
2018-04-17T12:56:12.435Z,30.62
2018-04-17T12:58:42.347Z,30.43
2018-04-17T13:01:10.757Z,30.79
2018-04-17T13:03:39.396Z,30.02
2018-04-17T13:06:07.854Z,30.95
2018-04-17T13:08:36.255Z,31.28
2018-04-17T13:11:04.796Z,30.90
2018-04-17T13:13:33.176Z,30.31
2018-04-17T13:16:02.948Z,30.29
2018-04-17T13:18:32.923Z,30.28
2018-04-17T13:21:02.827Z,30.19
2018-04-17T13:23:31.279Z,30.46
2018-04-17T13:25:59.704Z,31.01
2018-04-17T13:28:31.523Z,30.28
2018-04-17T13:30:59.941Z,29.64
2018-04-17T13:33:29.395Z,30.46
2018-04-17T13:36:01.405Z,29.54
2018-04-17T13:38:30.852Z,29.72
2018-04-17T13:40:59.248Z,29.98
2018-04-17T13:43:27.784Z,30.71
2018-04-17T13:45:57.247Z,30.57
2018-04-17T13:48:25.725Z,32.70
2018-04-17T13:50:54.119Z,31.41
2018-04-17T13:53:25.016Z,30.55
2018-04-17T13:55:53.431Z,31.43
2018-04-17T13:58:21.852Z,31.23
2018-04-17T14:00:50.275Z,31.29
2018-04-17T14:03:18.684Z,30.90
2018-04-17T14:05:47.108Z,30.96
2018-04-17T14:08:17.047Z,31.13
2018-04-17T14:10:45.558Z,30.24
2018-04-17T14:13:13.995Z,31.31
2018-04-17T14:15:43.455Z,32.14
2018-04-17T14:18:12.955Z,32.18
2018-04-17T14:20:41.382Z,31.08
2018-04-17T14:23:11.145Z,32.46
2018-04-17T14:25:40.924Z,30.61
2018-04-17T14:28:09.347Z,31.13
2018-04-17T14:30:37.854Z,31.23
2018-04-17T14:33:14.088Z,31.78
2018-04-17T14:35:42.727Z,30.98
2018-04-17T14:38:11.151Z,31.71
2018-04-17T14:40:39.563Z,30.97
2018-04-17T14:43:09.046Z,31.81
2018-04-17T14:45:37.451Z,31.48
2018-04-17T14:48:05.897Z,30.45
2018-04-17T14:50:34.356Z,30.66
2018-04-17T14:53:02.819Z,30.87
2018-04-17T14:55:31.236Z,31.38
2018-04-17T14:58:00.801Z,31.29
2018-04-17T15:00:29.205Z,31.34
2018-04-17T15:02:57.643Z,31.28
2018-04-17T15:05:27.084Z,30.95
2018-04-17T15:07:55.800Z,31.78
2018-04-17T15:10:24.225Z,30.75
2018-04-17T15:12:52.599Z,31.43
2018-04-17T15:15:22.181Z,32.18
2018-04-17T15:17:51.753Z,31.88
2018-04-17T15:20:21.656Z,31.08
2018-04-17T15:22:50.082Z,31.73
2018-04-17T15:25:18.648Z,33.05
2018-04-17T15:27:47.115Z,31.96
2018-04-17T15:30:16.567Z,33.28
2018-04-17T15:32:48.555Z,32.52
2018-04-17T15:35:17.016Z,31.50
2018-04-17T15:37:45.439Z,31.38
2018-04-17T15:40:13.854Z,31.48
2018-04-17T15:42:42.299Z,31.91
2018-04-17T15:45:11.721Z,30.93
2018-04-17T15:47:40.160Z,31.17
2018-04-17T15:50:08.572Z,30.58
2018-04-17T15:52:36.990Z,31.02
2018-04-17T15:55:06.690Z,30.81
2018-04-17T15:57:35.084Z,30.32
2018-04-17T16:00:05.057Z,29.72
2018-04-17T16:02:34.892Z,30.22
2018-04-17T16:05:03.302Z,32.27
2018-04-17T16:07:31.735Z,32.29
2018-04-17T16:10:00.153Z,32.76
2018-04-17T16:12:29.875Z,32.32
2018-04-17T16:14:58.304Z,32.96
2018-04-17T16:17:28.137Z,32.73
2018-04-17T16:19:56.592Z,32.21
2018-04-17T16:22:25.059Z,31.78
2018-04-17T16:24:55.056Z,32.25
2018-04-17T16:27:23.539Z,31.93
2018-04-17T16:29:51.974Z,31.88
2018-04-17T16:32:21.891Z,31.98
2018-04-17T16:34:50.353Z,32.01
2018-04-17T16:37:18.803Z,32.56
2018-04-17T16:39:47.216Z,32.03
2018-04-17T16:42:15.627Z,32.08
2018-04-17T16:44:45.160Z,33.18
2018-04-17T16:47:13.605Z,32.50
2018-04-17T16:49:42.180Z,32.92
2018-04-17T16:52:11.488Z,33.20
2018-04-17T16:54:40.007Z,33.42
2018-04-17T16:57:08.423Z,31.59
2018-04-17T16:59:38.553Z,31.43
2018-04-17T17:02:07.007Z,31.30
2018-04-17T17:04:35.451Z,30.58
2018-04-17T17:07:03.850Z,30.81
2018-04-17T17:09:32.311Z,31.25
2018-04-17T17:12:00.735Z,31.53
2018-04-17T17:14:29.173Z,32.46
2018-04-17T17:17:01.646Z,32.33
2018-04-17T17:19:33.631Z,32.49
2018-04-17T17:22:03.675Z,32.86
2018-04-17T17:24:32.138Z,32.12
2018-04-17T17:27:00.565Z,32.64
2018-04-17T17:29:33.143Z,32.93
2018-04-17T17:32:01.582Z,33.10
2018-04-17T17:34:31.603Z,32.90
2018-04-17T17:37:00.129Z,32.91
2018-04-17T17:39:34.307Z,33.07
2018-04-17T17:42:02.820Z,33.54
2018-04-17T17:44:31.258Z,33.79
2018-04-17T17:47:03.827Z,34.36
2018-04-17T17:49:36.442Z,34.48
2018-04-17T17:52:04.877Z,34.53
2018-04-17T17:54:33.335Z,34.77
2018-04-17T17:57:05.882Z,35.10
2018-04-17T17:59:36.457Z,35.65
2018-04-17T18:02:04.988Z,36.25
2018-04-17T18:04:33.452Z,37.07
2018-04-17T18:07:05.752Z,37.42
2018-04-17T18:09:34.167Z,37.53
2018-04-17T18:12:02.580Z,38.47
2018-04-17T18:14:33.171Z,38.79
2018-04-17T18:17:03.612Z,39.11
2018-04-17T18:19:32.033Z,39.55
2018-04-17T18:22:02.638Z,40.45
2018-04-17T18:24:31.063Z,40.56
2018-04-17T18:26:59.516Z,41.68
2018-04-17T18:29:27.997Z,41.73
2018-04-17T18:31:58.787Z,42.08
2018-04-17T18:34:31.011Z,41.73
2018-04-17T18:36:59.463Z,42.39
2018-04-17T18:39:30.080Z,42.43
2018-04-17T18:41:58.487Z,42.46
2018-04-17T18:44:29.247Z,42.83
2018-04-17T18:46:59.826Z,43.14
2018-04-17T18:49:28.211Z,43.90
2018-04-17T18:51:56.685Z,44.11
2018-04-17T18:54:25.190Z,43.78
2018-04-17T18:56:53.665Z,42.08
2018-04-17T18:59:22.100Z,41.79
2018-04-17T19:01:50.570Z,41.45
2018-04-17T19:04:21.155Z,41.60
2018-04-17T19:06:49.599Z,40.90
2018-04-17T19:09:20.166Z,42.08
2018-04-17T19:11:48.721Z,42.50
2018-04-17T19:14:17.196Z,42.29
2018-04-17T19:16:47.768Z,42.90
2018-04-17T19:19:16.284Z,42.62
2018-04-17T19:21:44.699Z,42.29
2018-04-17T19:24:19.368Z,42.36
2018-04-17T19:26:47.827Z,42.43
2018-04-17T19:29:16.557Z,42.91
2018-04-17T19:31:47.028Z,42.60
2018-04-17T19:34:15.395Z,43.19
2018-04-17T19:36:43.901Z,43.54
2018-04-17T19:39:12.332Z,44.25
2018-04-17T19:41:44.705Z,44.71
2018-04-17T19:44:15.279Z,44.86
2018-04-17T19:46:43.756Z,45.16
2018-04-17T19:49:14.224Z,45.31
2018-04-17T19:51:44.753Z,45.36
2018-04-17T19:54:13.263Z,45.51
2018-04-17T19:56:43.838Z,45.30
2018-04-17T19:59:12.289Z,45.18
2018-04-17T20:01:40.748Z,44.30
2018-04-17T20:04:11.447Z,45.32
2018-04-17T20:06:39.864Z,45.60
2018-04-17T20:09:10.260Z,45.49
2018-04-17T20:11:38.730Z,44.48
2018-04-17T20:14:09.280Z,44.08
2018-04-17T20:16:37.703Z,44.84
2018-04-17T20:19:06.177Z,44.65
2018-04-17T20:21:34.615Z,44.59
2018-04-17T20:24:03.067Z,44.49
2018-04-17T20:26:33.577Z,44.97
2018-04-17T20:29:04.190Z,45.08
2018-04-17T20:31:32.657Z,44.64
2018-04-17T20:34:01.175Z,44.93
2018-04-17T20:36:29.623Z,44.24
2018-04-17T20:38:58.142Z,44.95
2018-04-17T20:41:26.505Z,45.05
2018-04-17T20:43:57.129Z,45.38
2018-04-17T20:46:25.661Z,45.69
2018-04-17T20:48:54.190Z,45.69
2018-04-17T20:51:22.704Z,45.96
2018-04-17T20:53:51.235Z,46.79
2018-04-17T20:56:19.727Z,47.37
2018-04-17T20:58:50.287Z,46.67
2018-04-17T21:01:18.748Z,47.29
2018-04-17T21:03:47.158Z,47.65
2018-04-17T21:06:15.648Z,46.67
2018-04-17T21:08:44.088Z,46.98
2018-04-17T21:11:14.823Z,46.83
2018-04-17T21:13:43.298Z,47.33
2018-04-17T21:16:11.766Z,47.23
2018-04-17T21:18:40.236Z,47.10
2018-04-17T21:21:08.732Z,47.69
2018-04-17T21:23:37.383Z,47.18
2018-04-17T21:26:07.847Z,47.27
2018-04-17T21:28:36.308Z,47.58
2018-04-17T21:31:04.740Z,47.73
2018-04-17T21:33:33.187Z,47.83
2018-04-17T21:36:01.593Z,48.29
2018-04-17T21:38:30.093Z,48.48
2018-04-17T21:41:00.557Z,48.20
2018-04-17T21:43:29.018Z,48.41
2018-04-17T21:46:01.610Z,48.73
2018-04-17T21:48:30.011Z,49.45
2018-04-17T21:50:58.480Z,49.55
2018-04-17T21:53:26.916Z,49.76
2018-04-17T21:55:55.349Z,49.81
2018-04-17T21:58:25.962Z,50.22
2018-04-17T22:00:54.451Z,49.79
2018-04-17T22:03:22.911Z,49.66
2018-04-17T22:05:57.556Z,50.09
2018-04-17T22:08:26.008Z,50.21
2018-04-17T22:10:54.480Z,50.84
2018-04-17T22:13:22.942Z,51.38
2018-04-17T22:15:51.419Z,51.87
2018-04-17T22:18:19.990Z,51.92
2018-04-17T22:20:48.488Z,52.17
2018-04-17T22:23:16.971Z,52.67
2018-04-17T22:25:45.424Z,53.09
2018-04-17T22:28:13.907Z,52.62
2018-04-17T22:30:44.455Z,52.71
2018-04-17T22:33:12.901Z,52.78
2018-04-17T22:35:41.376Z,53.09
2018-04-17T22:38:11.915Z,52.30
2018-04-17T22:40:40.342Z,52.78
2018-04-17T22:43:08.800Z,52.55
2018-04-17T22:45:37.228Z,52.60
2018-04-17T22:48:05.691Z,52.01
2018-04-17T22:50:34.119Z,52.90
2018-04-17T22:53:04.648Z,53.30
2018-04-17T22:55:33.139Z,53.75
2018-04-17T22:58:01.568Z,54.19
2018-04-17T23:00:30.008Z,54.61
2018-04-17T23:03:00.595Z,54.01
2018-04-17T23:05:28.996Z,54.13
2018-04-17T23:07:57.460Z,53.44
2018-04-17T23:10:28.071Z,53.27
2018-04-17T23:12:56.643Z,53.29
2018-04-17T23:15:27.182Z,52.74
2018-04-17T23:17:55.604Z,52.37
2018-04-17T23:20:24.108Z,52.94
2018-04-17T23:22:54.616Z,53.07
2018-04-17T23:25:25.091Z,53.04
2018-04-17T23:27:53.490Z,52.50
2018-04-17T23:30:21.900Z,53.04
2018-04-17T23:32:50.322Z,53.77
2018-04-17T23:35:20.816Z,52.76
2018-04-17T23:37:49.179Z,53.98
2018-04-17T23:40:17.659Z,54.04
2018-04-17T23:42:46.049Z,53.82
2018-04-17T23:45:14.447Z,53.70
2018-04-17T23:47:42.892Z,54.33
2018-04-17T23:50:11.391Z,54.22
2018-04-17T23:52:41.897Z,54.64
2018-04-17T23:55:10.370Z,54.81
2018-04-17T23:57:40.924Z,55.44
